createdAt,value
2023-05-04T09:40:13.806Z,13.80
2023-05-04T09:42:42.369Z,13.90
2023-05-04T09:45:11.097Z,14.00
2023-05-04T09:47:42.267Z,14.30
2023-05-04T09:50:21.108Z,14.40
2023-05-04T09:52:50.391Z,14.40
2023-05-04T09:55:19.610Z,14.30
2023-05-04T09:57:50.655Z,14.20
2023-05-04T10:00:19.302Z,14.30
2023-05-04T10:02:48.402Z,14.30
2023-05-04T10:05:18.014Z,14.50
2023-05-04T10:07:46.587Z,14.70
2023-05-04T10:10:15.513Z,14.80
2023-05-04T10:12:45.310Z,15.10
2023-05-04T10:15:16.058Z,15.20
2023-05-04T10:17:46.565Z,15.30
2023-05-04T10:20:52.161Z,15.40
2023-05-04T10:23:59.241Z,15.40
2023-05-04T10:27:05.750Z,15.60
2023-05-04T10:29:34.248Z,15.80
2023-05-04T10:32:02.332Z,15.90
2023-05-04T10:34:31.948Z,15.90
2023-05-04T10:37:01.868Z,15.80
2023-05-04T10:39:31.810Z,15.70
2023-05-04T10:42:01.607Z,15.70
2023-05-04T10:44:30.359Z,15.80
2023-05-04T10:47:06.733Z,15.80
2023-05-04T10:49:35.809Z,15.90
2023-05-04T10:52:16.286Z,16.10
2023-05-04T10:54:44.514Z,16.20
2023-05-04T10:57:16.743Z,16.20
2023-05-04T10:59:59.290Z,16.10
2023-05-04T11:02:29.753Z,15.80
2023-05-04T11:05:04.512Z,15.60
2023-05-04T11:07:41.687Z,15.40
2023-05-04T11:10:20.565Z,15.30
2023-05-04T11:12:48.711Z,15.20
2023-05-04T11:15:16.399Z,15.30
2023-05-04T11:17:48.202Z,15.50
2023-05-04T11:20:27.035Z,15.80
2023-05-04T11:22:55.058Z,15.90
2023-05-04T11:25:29.762Z,15.90
2023-05-04T11:27:58.882Z,15.80
2023-05-04T11:30:34.625Z,15.80
2023-05-04T11:33:12.258Z,15.80
2023-05-04T11:35:41.158Z,16.00
2023-05-04T11:38:08.717Z,16.20
2023-05-04T11:40:37.525Z,16.20
2023-05-04T11:43:05.084Z,16.20
2023-05-04T11:45:35.485Z,16.10
2023-05-04T11:48:03.565Z,16.00
2023-05-04T11:50:31.849Z,16.00
2023-05-04T11:53:13.628Z,16.10
2023-05-04T11:55:41.997Z,16.10
2023-05-04T11:58:11.582Z,16.10
2023-05-04T12:00:40.452Z,16.10
2023-05-04T12:03:13.532Z,16.10
2023-05-04T12:05:49.199Z,16.10
2023-05-04T12:08:31.538Z,16.20
2023-05-04T12:11:16.310Z,16.20
2023-05-04T12:13:45.618Z,16.40
2023-05-04T12:16:18.439Z,16.60
2023-05-04T12:18:47.468Z,16.70
2023-05-04T12:21:16.029Z,16.80
2023-05-04T12:23:43.635Z,16.90
2023-05-04T12:26:12.356Z,17.10
2023-05-04T12:28:41.273Z,17.30
2023-05-04T12:31:09.415Z,17.50
2023-05-04T12:33:37.499Z,17.60
2023-05-04T12:36:06.197Z,17.50
2023-05-04T12:38:34.719Z,17.40
2023-05-04T12:41:04.451Z,17.30
2023-05-04T12:43:33.195Z,17.40
2023-05-04T12:46:01.214Z,17.30
2023-05-04T12:48:29.161Z,17.00
2023-05-04T12:50:56.982Z,16.90
2023-05-04T12:53:28.008Z,16.80
2023-05-04T12:55:56.458Z,16.90
2023-05-04T12:58:24.105Z,17.10
2023-05-04T13:00:51.880Z,17.20
2023-05-04T13:03:19.882Z,17.40
2023-05-04T13:05:49.703Z,17.60
2023-05-04T13:08:19.732Z,17.80
2023-05-04T13:10:48.113Z,17.80
2023-05-04T13:13:17.861Z,17.80
2023-05-04T13:15:49.504Z,17.80
2023-05-04T13:18:17.289Z,17.80
2023-05-04T13:20:45.677Z,18.00
2023-05-04T13:23:14.087Z,18.10
2023-05-04T13:25:42.218Z,17.80
2023-05-04T13:28:09.897Z,17.60
2023-05-04T13:30:37.529Z,17.40
2023-05-04T13:33:16.732Z,17.40
2023-05-04T13:35:53.470Z,17.30
2023-05-04T13:38:21.137Z,17.30
2023-05-04T13:40:48.764Z,17.50
2023-05-04T13:43:16.408Z,17.80
2023-05-04T13:45:44.011Z,18.00
2023-05-04T13:48:11.849Z,18.20
2023-05-04T13:50:39.443Z,18.10
2023-05-04T13:53:07.387Z,18.10
2023-05-04T13:55:34.959Z,18.00
2023-05-04T13:58:02.750Z,17.90
2023-05-04T14:00:30.525Z,17.90
2023-05-04T14:02:58.679Z,18.00
2023-05-04T14:05:26.368Z,18.10
2023-05-04T14:07:54.014Z,18.00
2023-05-04T14:10:21.811Z,17.80
2023-05-04T14:12:49.494Z,17.60
2023-05-04T14:15:17.359Z,17.50
2023-05-04T14:17:44.978Z,17.30
2023-05-04T14:20:13.130Z,17.30
2023-05-04T14:22:43.540Z,17.30
2023-05-04T14:25:11.338Z,17.30
2023-05-04T14:27:38.943Z,17.20
2023-05-04T14:30:09.410Z,17.20
2023-05-04T14:32:37.121Z,17.20
2023-05-04T14:35:09.871Z,17.30
2023-05-04T14:37:39.951Z,17.40
2023-05-04T14:40:10.655Z,17.50
2023-05-04T14:42:38.887Z,17.40
2023-05-04T14:45:08.465Z,17.30
2023-05-04T14:47:36.513Z,17.30
2023-05-04T14:50:05.402Z,17.10
2023-05-04T14:52:33.239Z,17.20
2023-05-04T14:55:01.175Z,17.20
2023-05-04T14:57:28.956Z,17.20
2023-05-04T14:59:56.541Z,17.20
2023-05-04T15:02:24.444Z,17.10
2023-05-04T15:04:52.091Z,17.00
2023-05-04T15:07:20.941Z,17.10
2023-05-04T15:09:48.657Z,17.10
2023-05-04T15:12:17.574Z,17.10
2023-05-04T15:14:46.130Z,17.10
2023-05-04T15:17:13.874Z,16.80
2023-05-04T15:19:41.460Z,16.70
2023-05-04T15:22:09.472Z,16.70
2023-05-04T15:24:37.126Z,16.60
2023-05-04T15:27:04.925Z,16.50
2023-05-04T15:29:32.637Z,16.50
2023-05-04T15:32:00.393Z,16.60
2023-05-04T15:34:28.126Z,16.60
2023-05-04T15:36:55.882Z,16.60
2023-05-04T15:39:23.501Z,16.50
2023-05-04T15:41:51.216Z,16.40
2023-05-04T15:44:21.054Z,16.40
2023-05-04T15:46:48.732Z,16.30
2023-05-04T15:49:16.500Z,16.30
2023-05-04T15:51:44.068Z,16.10
2023-05-04T15:54:11.688Z,16.00
2023-05-04T15:56:39.236Z,15.80
2023-05-04T15:59:07.325Z,15.80
2023-05-04T16:01:35.028Z,15.70
2023-05-04T16:04:02.745Z,15.60
2023-05-04T16:06:31.324Z,15.60
2023-05-04T16:08:59.120Z,15.50
2023-05-04T16:11:26.733Z,15.50
2023-05-04T16:13:54.512Z,15.50
2023-05-04T16:16:22.387Z,15.50
2023-05-04T16:18:50.083Z,15.50
2023-05-04T16:21:17.704Z,15.60
2023-05-04T16:23:45.343Z,15.70
2023-05-04T16:26:12.950Z,15.80
2023-05-04T16:28:41.569Z,15.80
2023-05-04T16:31:11.801Z,15.90
2023-05-04T16:33:41.674Z,16.00
2023-05-04T16:36:09.747Z,16.00
2023-05-04T16:38:37.546Z,16.00
2023-05-04T16:41:05.468Z,16.00
2023-05-04T16:43:33.274Z,16.00
2023-05-04T16:46:01.209Z,15.90
2023-05-04T16:48:29.248Z,15.80
2023-05-04T16:50:58.247Z,15.80
2023-05-04T16:53:26.074Z,15.60
2023-05-04T16:55:54.096Z,15.50
2023-05-04T16:58:21.841Z,15.40
2023-05-04T17:00:49.441Z,15.30
2023-05-04T17:03:17.305Z,15.20
2023-05-04T17:05:44.989Z,15.10
2023-05-04T17:08:12.720Z,14.90
2023-05-04T17:10:41.258Z,14.80
2023-05-04T17:13:08.906Z,14.80
2023-05-04T17:15:36.635Z,14.70
2023-05-04T17:18:04.440Z,14.70
2023-05-04T17:20:32.378Z,14.70
2023-05-04T17:23:00.235Z,14.60
2023-05-04T17:25:28.096Z,14.60
2023-05-04T17:27:55.945Z,14.60
2023-05-04T17:30:23.855Z,14.60
2023-05-04T17:32:52.524Z,14.60
2023-05-04T17:35:25.974Z,14.60
2023-05-04T17:37:58.793Z,14.60
2023-05-04T17:40:27.724Z,14.60
2023-05-04T17:42:56.454Z,14.80
2023-05-04T17:45:24.263Z,15.20
2023-05-04T17:47:52.056Z,15.40
2023-05-04T17:50:20.159Z,15.50
2023-05-04T17:52:55.237Z,15.50
2023-05-04T17:55:24.752Z,15.40
2023-05-04T17:57:54.333Z,15.70
2023-05-04T18:00:22.420Z,16.00
2023-05-04T18:02:50.216Z,16.20
2023-05-04T18:05:18.104Z,16.10
2023-05-04T18:07:51.239Z,15.70
2023-05-04T18:10:19.215Z,15.30
2023-05-04T18:12:49.839Z,15.30
2023-05-04T18:15:18.606Z,15.50
2023-05-04T18:17:48.744Z,15.50
2023-05-04T18:20:16.820Z,15.50
2023-05-04T18:22:48.469Z,15.30
2023-05-04T18:25:16.329Z,15.20
2023-05-04T18:27:44.494Z,15.10
2023-05-04T18:30:12.538Z,14.80
2023-05-04T18:32:40.499Z,14.70
2023-05-04T18:35:08.344Z,14.50
2023-05-04T18:37:36.015Z,14.30
